Time;durP1;ratioP1;P1;durP2;ratioP2;P2;SDS_P1;SDS_P2;PMS_P1;PMS_P2;Temp;Humidity;BMP_temperature;BMP_pressure;BME280_temperature;BME280_humidity;BME280_pressure;Samples;Min_cycle;Max_cycle;Signal;HPM_P1;HPM_P2
2024/01/13 00:03:36;;;;;;;2.65;1.20;;;20.00;51.70;;;;;;10164086;28;20089;-49
2024/01/13 00:08:37;;;;;;;1.98;0.88;;;20.10;51.40;;;;;;10157567;28;20055;-47
2024/01/13 00:13:39;;;;;;;1.83;1.08;;;20.00;51.50;;;;;;10148545;28;20085;-47
2024/01/13 00:18:42;;;;;;;1.67;0.90;;;20.10;51.20;;;;;;10167448;28;20051;-47
2024/01/13 00:23:43;;;;;;;1.45;0.80;;;20.00;51.00;;;;;;10161161;28;20044;-49
2024/01/13 00:28:45;;;;;;;2.08;1.00;;;19.90;51.10;;;;;;10157848;28;20044;-47
2024/01/13 00:33:48;;;;;;;1.80;0.82;;;19.90;50.80;;;;;;10149958;28;20059;-47
2024/01/13 00:38:50;;;;;;;2.75;0.80;;;19.90;50.60;;;;;;10142055;28;20495;-47
2024/01/13 00:43:52;;;;;;;2.88;0.70;;;20.00;50.30;;;;;;10144307;28;20052;-51
2024/01/13 00:48:55;;;;;;;2.45;1.13;;;19.90;50.40;;;;;;10145472;28;20156;-46
2024/01/13 00:53:56;;;;;;;1.48;0.90;;;19.80;50.70;;;;;;10141999;28;20044;-47
2024/01/13 00:58:58;;;;;;;2.20;0.80;;;19.90;50.70;;;;;;10145416;28;20048;-50
2024/01/13 01:04:01;;;;;;;1.25;0.90;;;20.00;50.00;;;;;;10143795;28;20135;-47
2024/01/13 01:09:02;;;;;;;0.82;0.70;;;20.00;49.80;;;;;;10152017;28;20572;-49
2024/01/13 01:14:04;;;;;;;1.00;0.70;;;19.90;49.60;;;;;;10143215;28;20048;-47
2024/01/13 01:19:07;;;;;;;1.10;0.63;;;19.80;49.80;;;;;;10155695;28;20052;-47
2024/01/13 01:24:08;;;;;;;1.23;0.90;;;19.70;49.80;;;;;;10157212;28;20076;-49
2024/01/13 01:29:10;;;;;;;0.85;0.65;;;19.50;50.00;;;;;;10151850;28;20520;-50
2024/01/13 01:34:13;;;;;;;1.92;0.88;;;19.50;50.10;;;;;;10151482;28;20413;-49
2024/01/13 01:39:14;;;;;;;1.23;0.70;;;19.50;50.00;;;;;;10155932;28;20052;-47
2024/01/13 01:44:16;;;;;;;1.10;0.70;;;19.50;49.80;;;;;;10154412;28;20068;-50
2024/01/13 01:49:19;;;;;;;1.13;0.77;;;19.60;49.60;;;;;;10153064;28;20048;-47
2024/01/13 01:54:21;;;;;;;1.20;0.70;;;19.50;49.50;;;;;;10155123;28;20053;-52
2024/01/13 01:59:22;;;;;;;1.05;0.70;;;19.40;49.70;;;;;;10158613;28;20522;-48
2024/01/13 02:04:25;;;;;;;1.45;0.70;;;19.50;49.50;;;;;;10166124;28;20478;-48
2024/01/13 02:09:27;;;;;;;0.73;0.60;;;19.30;49.50;;;;;;10168663;28;20048;-47
2024/01/13 02:14:29;;;;;;;0.80;0.70;;;19.40;49.20;;;;;;10178185;28;20044;-47
2024/01/13 02:19:33;;;;;;;1.40;0.70;;;19.50;49.00;;;;;;10172629;28;20055;-47
2024/01/13 02:24:36;;;;;;;1.02;0.55;;;19.60;48.70;;;;;;10158573;28;20143;-47
2024/01/13 02:29:38;;;;;;;1.45;0.77;;;19.60;48.50;;;;;;10164542;28;20127;-50
2024/01/13 02:34:40;;;;;;;0.77;0.50;;;19.40;48.80;;;;;;10156469;28;20054;-52
2024/01/13 02:39:42;;;;;;;0.60;0.47;;;19.30;49.00;;;;;;10151322;28;20044;-47
2024/01/13 02:44:44;;;;;;;1.52;0.75;;;19.30;49.00;;;;;;10146518;28;20058;-47
2024/01/13 02:49:46;;;;;;;0.82;0.60;;;19.30;48.80;;;;;;10152102;28;20127;-48
2024/01/13 02:54:49;;;;;;;0.85;0.60;;;19.40;48.40;;;;;;10159780;28;20045;-51
2024/01/13 02:59:50;;;;;;;1.40;0.65;;;19.30;48.60;;;;;;10150692;28;20067;-48
2024/01/13 03:04:52;;;;;;;0.65;0.40;;;19.30;48.40;;;;;;10149564;28;20055;-47
2024/01/13 03:09:55;;;;;;;0.75;0.68;;;19.40;48.40;;;;;;10152552;28;20059;-50
2024/01/13 03:14:56;;;;;;;0.77;0.47;;;19.30;48.20;;;;;;10167244;28;20069;-47
2024/01/13 03:19:58;;;;;;;0.77;0.50;;;19.50;48.00;;;;;;10156501;28;20066;-49
2024/01/13 03:25:01;;;;;;;0.73;0.50;;;19.30;48.10;;;;;;10164943;28;20082;-48
2024/01/13 03:30:03;;;;;;;0.88;0.60;;;19.30;48.20;;;;;;10167957;28;20425;-48
2024/01/13 03:35:05;;;;;;;1.23;0.55;;;19.30;48.00;;;;;;10158581;28;20048;-51
2024/01/13 03:40:09;;;;;;;0.55;0.40;;;19.30;48.20;;;;;;10145453;28;20466;-51
2024/01/13 03:45:11;;;;;;;0.93;0.50;;;19.20;48.10;;;;;;10152852;28;20044;-50
2024/01/13 03:50:12;;;;;;;0.52;0.45;;;19.20;47.90;;;;;;10146900;28;20049;-49
2024/01/13 03:55:16;;;;;;;0.43;0.30;;;19.40;47.60;;;;;;10152447;28;20527;-50
2024/01/13 04:00:19;;;;;;;0.70;0.50;;;19.50;47.60;;;;;;10143493;28;20606;-50
2024/01/13 04:05:20;;;;;;;1.05;0.40;;;19.70;47.00;;;;;;10144147;28;20048;-51
2024/01/13 04:10:23;;;;;;;0.40;0.40;;;20.40;45.80;;;;;;10147589;28;20051;-51
2024/01/13 04:15:25;;;;;;;0.90;0.50;;;20.50;46.10;;;;;;10141931;28;20048;-49
2024/01/13 04:20:27;;;;;;;0.65;0.45;;;20.50;46.40;;;;;;10144436;28;20559;-51
2024/01/13 04:25:31;;;;;;;0.77;0.50;;;20.90;45.90;;;;;;10152702;28;20083;-50
2024/01/13 04:30:33;;;;;;;0.70;0.50;;;21.30;45.00;;;;;;10147488;28;20067;-59
2024/01/13 04:35:34;;;;;;;1.08;0.47;;;21.50;44.40;;;;;;10150067;28;20062;-48
2024/01/13 04:40:37;;;;;;;0.47;0.40;;;21.70;44.10;;;;;;10143060;28;20128;-49
2024/01/13 04:45:39;;;;;;;0.47;0.40;;;21.90;43.70;;;;;;10150054;28;20052;-47
2024/01/13 04:50:40;;;;;;;0.50;0.40;;;21.90;43.50;;;;;;10146163;28;20051;-51
2024/01/13 04:55:43;;;;;;;0.47;0.47;;;22.00;43.20;;;;;;10148132;28;20147;-51
2024/01/13 05:00:45;;;;;;;0.30;0.30;;;22.20;43.00;;;;;;10154165;28;20055;-50
2024/01/13 05:05:46;;;;;;;0.50;0.40;;;22.30;44.10;;;;;;10147363;28;20136;-52
2024/01/13 05:10:49;;;;;;;0.60;0.40;;;22.20;42.80;;;;;;10154981;28;20406;-52
2024/01/13 05:15:51;;;;;;;0.40;0.40;;;22.00;43.30;;;;;;10153455;28;20063;-49
2024/01/13 05:20:53;;;;;;;1.48;0.50;;;21.90;43.90;;;;;;10151043;28;20140;-47
2024/01/13 05:25:55;;;;;;;1.13;0.45;;;21.90;44.50;;;;;;10152585;28;20135;-49
2024/01/13 05:30:57;;;;;;;0.50;0.50;;;22.10;43.70;;;;;;10151491;28;20058;-48
2024/01/13 05:35:59;;;;;;;0.80;0.40;;;22.30;43.90;;;;;;10151623;28;20158;-49
2024/01/13 05:41:02;;;;;;;0.50;0.40;;;22.60;43.30;;;;;;10157124;28;20127;-51
2024/01/13 05:46:03;;;;;;;0.40;0.40;;;22.70;44.50;;;;;;10153030;28;20481;-48
2024/01/13 05:51:05;;;;;;;0.68;0.50;;;22.70;47.70;;;;;;10151727;28;20040;-49
2024/01/13 05:56:08;;;;;;;0.50;0.50;;;22.80;47.10;;;;;;10148933;28;20054;-49
2024/01/13 06:01:10;;;;;;;0.32;0.32;;;22.80;48.80;;;;;;10154443;28;20048;-50
2024/01/13 06:06:11;;;;;;;0.40;0.40;;;22.70;47.30;;;;;;10149448;28;20044;-52
2024/01/13 06:11:15;;;;;;;0.20;0.20;;;22.50;46.50;;;;;;10149872;28;20050;-50
2024/01/13 06:16:17;;;;;;;0.47;0.45;;;22.60;45.90;;;;;;10159452;28;20040;-49
2024/01/13 06:21:19;;;;;;;0.50;0.43;;;22.50;43.90;;;;;;10147381;28;20048;-50
2024/01/13 06:26:22;;;;;;;0.57;0.50;;;22.50;44.90;;;;;;10164030;28;20062;-50
2024/01/13 06:31:23;;;;;;;0.38;0.35;;;22.40;45.50;;;;;;10188321;28;20073;-48
2024/01/13 06:36:25;;;;;;;0.40;0.40;;;22.40;45.90;;;;;;10157994;28;20040;-53
2024/01/13 06:41:28;;;;;;;0.50;0.32;;;22.50;45.90;;;;;;10155689;28;20403;-49
2024/01/13 06:46:29;;;;;;;0.60;0.40;;;22.60;45.60;;;;;;10150136;28;20062;-49
2024/01/13 06:51:31;;;;;;;2.33;0.40;;;22.80;47.00;;;;;;10157065;28;20044;-51
2024/01/13 06:56:34;;;;;;;6.43;0.50;;;23.10;43.40;;;;;;10167765;28;20083;-47
2024/01/13 07:01:36;;;;;;;3.70;0.47;;;23.20;43.40;;;;;;10153268;28;20051;-48
2024/01/13 07:06:38;;;;;;;4.47;0.45;;;23.50;43.10;;;;;;10171021;28;20135;-49
2024/01/13 07:11:40;;;;;;;6.93;0.63;;;23.20;43.70;;;;;;10164664;28;20063;-48
2024/01/13 07:16:42;;;;;;;3.15;0.60;;;23.30;44.00;;;;;;10159413;28;20045;-48
2024/01/13 07:21:45;;;;;;;2.95;0.40;;;23.40;44.10;;;;;;10157690;28;20123;-48
2024/01/13 07:26:48;;;;;;;1.33;0.40;;;23.30;44.40;;;;;;10164051;28;20141;-47
2024/01/13 07:31:49;;;;;;;0.80;0.43;;;23.30;44.10;;;;;;10148647;28;20044;-48
2024/01/13 07:36:51;;;;;;;4.93;0.68;;;23.30;44.20;;;;;;10162757;28;20160;-51
2024/01/13 07:41:54;;;;;;;2.63;0.40;;;23.40;44.30;;;;;;10167866;28;20047;-52
2024/01/13 07:47:00;;;;;;;1.40;0.60;;;23.40;44.50;;;;;;10159839;28;20053;-50
2024/01/13 07:52:02;;;;;;;5.38;0.70;;;23.50;44.60;;;;;;10152867;28;20052;-49
2024/01/13 07:57:06;;;;;;;4.88;0.60;;;23.50;44.60;;;;;;10175599;28;20139;-49
2024/01/13 08:02:07;;;;;;;3.85;0.50;;;23.50;44.70;;;;;;10160808;28;20075;-48
2024/01/13 08:07:09;;;;;;;3.47;0.70;;;23.50;45.30;;;;;;10160443;28;20052;-48
2024/01/13 08:12:12;;;;;;;6.50;0.65;;;23.50;45.40;;;;;;10157496;28;20054;-49
2024/01/13 08:17:14;;;;;;;4.10;0.50;;;23.40;45.60;;;;;;10166139;28;20562;-51
2024/01/13 08:22:15;;;;;;;1.33;0.60;;;23.30;46.20;;;;;;10162343;28;20052;-52
2024/01/13 08:27:18;;;;;;;1.67;0.50;;;23.30;46.70;;;;;;10173736;28;20057;-48
2024/01/13 08:32:20;;;;;;;2.38;0.50;;;23.30;45.40;;;;;;10177230;28;20127;-52
2024/01/13 08:37:22;;;;;;;8.65;0.88;;;23.30;45.60;;;;;;10175574;28;20055;-48
2024/01/13 08:42:25;;;;;;;7.18;0.70;;;23.30;45.40;;;;;;10169991;28;20131;-49
2024/01/13 08:47:26;;;;;;;5.35;0.85;;;23.20;46.00;;;;;;10168176;28;20147;-52
2024/01/13 08:52:28;;;;;;;9.23;1.48;;;23.20;46.70;;;;;;10168099;28;20106;-48
2024/01/13 08:57:31;;;;;;;8.02;1.80;;;23.30;47.10;;;;;;10156426;28;20080;-47
2024/01/13 09:02:33;;;;;;;8.60;1.95;;;23.30;46.70;;;;;;10164646;28;20050;-48
2024/01/13 09:07:35;;;;;;;9.10;1.80;;;23.40;47.40;;;;;;10167828;28;20098;-48
2024/01/13 09:12:38;;;;;;;7.18;1.65;;;23.40;47.40;;;;;;10167605;28;20083;-51
2024/01/13 09:17:39;;;;;;;11.50;2.75;;;23.30;47.50;;;;;;10166543;28;20132;-49
2024/01/13 09:22:41;;;;;;;22.27;3.53;;;23.30;47.70;;;;;;10166793;28;20048;-53
2024/01/13 09:27:44;;;;;;;19.20;4.30;;;23.20;47.70;;;;;;10157620;28;20048;-51
2024/01/13 09:32:45;;;;;;;21.35;3.30;;;23.10;47.20;;;;;;10156418;28;20040;-52
2024/01/13 09:37:47;;;;;;;13.73;3.03;;;23.20;45.60;;;;;;10149928;28;20044;-49
2024/01/13 09:42:57;;;;;;;13.10;2.67;;;23.10;45.10;;;;;;10154823;28;20052;-49
2024/01/13 09:47:58;;;;;;;7.55;2.00;;;23.10;44.60;;;;;;10156727;28;20748;-49
2024/01/13 09:53:00;;;;;;;7.38;1.88;;;23.10;44.00;;;;;;10152512;28;20052;-52
2024/01/13 09:58:07;;;;;;;5.55;1.75;;;23.10;43.40;;;;;;10155488;28;20078;-51
2024/01/13 10:03:08;;;;;;;4.93;2.05;;;23.10;43.20;;;;;;10162386;28;20044;-52
2024/01/13 10:08:10;;;;;;;8.73;1.80;;;23.10;43.00;;;;;;10143280;28;20056;-50
2024/01/13 10:13:13;;;;;;;5.18;1.70;;;23.10;43.00;;;;;;10147768;28;20139;-48
2024/01/13 10:18:17;;;;;;;3.55;1.38;;;23.20;42.50;;;;;;10154769;28;20048;-51
2024/01/13 10:23:18;;;;;;;3.80;1.35;;;23.20;42.20;;;;;;10156263;28;20048;-52
2024/01/13 10:28:23;;;;;;;4.78;1.40;;;23.20;42.10;;;;;;10158946;28;20049;-55
2024/01/13 10:33:24;;;;;;;2.20;1.33;;;23.20;42.00;;;;;;10155693;28;20146;-53
2024/01/13 10:38:26;;;;;;;3.35;1.30;;;23.20;41.70;;;;;;10160227;28;20071;-50
2024/01/13 10:43:29;;;;;;;2.58;1.20;;;23.20;42.10;;;;;;10144884;28;20044;-52
2024/01/13 10:48:34;;;;;;;2.78;1.13;;;23.30;41.90;;;;;;10147067;28;20136;-52
2024/01/13 10:53:36;;;;;;;1.77;1.25;;;23.30;41.00;;;;;;10149515;28;20044;-51
2024/01/13 10:58:39;;;;;;;4.75;1.30;;;23.30;40.90;;;;;;10152901;28;20067;-49
2024/01/13 11:03:41;;;;;;;2.15;1.20;;;23.20;41.00;;;;;;10157705;28;20045;-49
2024/01/13 11:08:43;;;;;;;1.50;1.00;;;23.30;41.00;;;;;;10154484;28;20055;-51
2024/01/13 11:13:48;;;;;;;2.45;1.30;;;23.30;40.60;;;;;;10157425;28;20056;-51
2024/01/13 11:18:53;;;;;;;2.13;1.10;;;23.40;40.20;;;;;;10156146;28;20086;-54
2024/01/13 11:23:58;;;;;;;1.55;0.98;;;23.30;40.10;;;;;;10150294;28;20131;-53
2024/01/13 11:29:01;;;;;;;2.53;1.00;;;23.30;39.80;;;;;;10165628;28;20059;-51
2024/01/13 11:34:03;;;;;;;2.15;0.80;;;23.30;39.70;;;;;;10149668;28;20417;-49
2024/01/13 11:39:04;;;;;;;2.58;1.00;;;23.30;39.60;;;;;;10177685;28;20051;-51
2024/01/13 11:44:07;;;;;;;1.23;0.80;;;23.40;39.40;;;;;;10155618;28;20622;-49
2024/01/13 11:49:09;;;;;;;1.17;0.70;;;23.50;39.10;;;;;;10156151;28;20513;-53
2024/01/13 11:54:11;;;;;;;0.77;0.70;;;23.50;39.00;;;;;;10152320;28;20048;-49
2024/01/13 11:59:14;;;;;;;0.70;0.70;;;23.50;39.20;;;;;;10146439;28;20056;-51
2024/01/13 12:04:16;;;;;;;1.52;0.68;;;23.50;38.70;;;;;;10143774;28;20051;-51
2024/01/13 12:09:19;;;;;;;1.73;0.75;;;23.50;38.70;;;;;;10146828;28;20135;-50
2024/01/13 12:14:26;;;;;;;2.70;0.90;;;23.60;38.40;;;;;;10147386;28;20044;-49
2024/01/13 12:19:29;;;;;;;1.63;0.68;;;23.60;38.30;;;;;;10150760;28;20052;-55
2024/01/13 12:24:32;;;;;;;1.20;0.80;;;23.60;38.40;;;;;;10156365;28;20043;-55
2024/01/13 12:29:35;;;;;;;1.02;0.88;;;23.60;38.40;;;;;;10163192;28;20062;-56
2024/01/13 12:34:38;;;;;;;1.83;1.10;;;23.80;37.20;;;;;;10156961;28;20045;-51
2024/01/13 12:39:40;;;;;;;3.55;1.10;;;23.70;38.80;;;;;;10154304;28;20123;-50
2024/01/13 12:44:44;;;;;;;3.90;1.05;;;23.50;41.80;;;;;;10146275;28;20048;-52
2024/01/13 12:49:45;;;;;;;9.18;1.20;;;23.60;42.50;;;;;;10147936;28;20744;-51
2024/01/13 12:54:47;;;;;;;3.60;1.27;;;23.70;42.40;;;;;;10151831;28;20115;-50
2024/01/13 12:59:50;;;;;;;2.83;0.98;;;23.60;42.00;;;;;;10149955;28;20151;-51
2024/01/13 13:04:52;;;;;;;1.75;0.93;;;23.70;42.00;;;;;;10149019;28;20059;-54
2024/01/13 13:09:55;;;;;;;9.52;1.13;;;24.00;41.90;;;;;;10151661;28;20498;-54
2024/01/13 13:14:58;;;;;;;10.70;1.20;;;23.90;42.60;;;;;;10151266;28;20136;-52
2024/01/13 13:20:00;;;;;;;7.28;1.27;;;24.00;43.30;;;;;;10148512;28;20048;-54
2024/01/13 13:25:01;;;;;;;4.10;0.90;;;24.10;43.50;;;;;;10157805;28;20625;-52
2024/01/13 13:30:06;;;;;;;6.07;1.20;;;23.90;42.70;;;;;;10157256;28;20056;-53
2024/01/13 13:35:08;;;;;;;3.03;1.50;;;23.70;42.00;;;;;;10159847;28;20171;-53
2024/01/13 13:40:10;;;;;;;4.25;1.20;;;23.70;40.30;;;;;;10164249;28;20040;-52
2024/01/13 13:45:13;;;;;;;3.47;1.90;;;23.70;39.70;;;;;;10153310;28;20120;-54
2024/01/13 13:50:15;;;;;;;3.92;2.90;;;23.60;39.20;;;;;;10159251;28;20139;-48
2024/01/13 13:55:16;;;;;;;3.55;2.20;;;23.60;39.30;;;;;;10152144;28;20407;-55
2024/01/13 14:00:20;;;;;;;3.38;2.10;;;23.50;39.30;;;;;;10143089;28;20102;-55
2024/01/13 14:05:21;;;;;;;3.88;1.70;;;23.40;39.30;;;;;;10143074;28;20045;-53
2024/01/13 14:10:23;;;;;;;4.47;1.65;;;23.40;39.30;;;;;;10144580;28;20506;-56
2024/01/13 14:15:28;;;;;;;3.95;1.83;;;23.40;39.70;;;;;;10154484;28;20124;-50
2024/01/13 14:20:31;;;;;;;142.75;79.80;;;23.40;40.10;;;;;;10156200;28;20044;-52
2024/01/13 14:25:34;;;;;;;179.77;102.82;;;23.30;40.80;;;;;;10152218;28;20045;-51
2024/01/13 14:30:37;;;;;;;132.85;75.38;;;23.50;41.40;;;;;;10145195;28;20139;-51
2024/01/13 14:35:38;;;;;;;94.47;54.72;;;23.50;41.40;;;;;;10158495;28;20059;-50
2024/01/13 14:40:40;;;;;;;68.32;41.13;;;23.40;41.20;;;;;;10156631;28;20155;-51
2024/01/13 14:45:44;;;;;;;51.25;32.95;;;23.40;41.40;;;;;;10164700;28;20219;-51
2024/01/13 14:50:46;;;;;;;41.97;26.23;;;23.50;41.50;;;;;;10160560;28;20048;-55
2024/01/13 14:55:47;;;;;;;29.95;18.50;;;23.50;41.20;;;;;;10158606;28;20131;-53
2024/01/13 15:00:50;;;;;;;23.70;14.35;;;23.70;40.40;;;;;;10157723;28;20103;-50
2024/01/13 15:05:52;;;;;;;21.13;11.70;;;23.70;40.40;;;;;;10157288;28;20414;-52
2024/01/13 15:10:54;;;;;;;18.77;9.23;;;23.60;40.30;;;;;;10161991;28;20056;-49
2024/01/13 15:15:59;;;;;;;20.80;8.60;;;23.70;40.10;;;;;;10168009;28;20077;-53
2024/01/13 15:21:00;;;;;;;14.48;7.20;;;23.80;40.10;;;;;;10157875;28;20057;-51
2024/01/13 15:26:02;;;;;;;13.05;6.22;;;23.70;40.10;;;;;;10155084;28;20503;-49
2024/01/13 15:31:05;;;;;;;12.43;6.38;;;23.70;39.80;;;;;;10158916;28;20135;-52
2024/01/13 15:36:07;;;;;;;11.82;5.38;;;23.60;40.00;;;;;;10155491;28;20048;-56
2024/01/13 15:41:08;;;;;;;12.13;5.15;;;23.50;40.30;;;;;;10186996;28;20431;-49
2024/01/13 15:46:12;;;;;;;11.45;5.03;;;23.40;40.20;;;;;;10151210;28;20074;-48
2024/01/13 15:51:13;;;;;;;11.20;4.78;;;23.50;40.10;;;;;;10165179;28;20528;-52
2024/01/13 15:56:16;;;;;;;10.43;4.25;;;23.50;39.70;;;;;;10162654;28;20122;-51
2024/01/13 16:01:20;;;;;;;13.40;4.57;;;23.50;39.40;;;;;;10166395;28;20460;-52
2024/01/13 16:06:22;;;;;;;10.32;3.88;;;23.50;39.60;;;;;;10163475;28;20055;-49
2024/01/13 16:11:25;;;;;;;10.35;3.60;;;23.50;39.40;;;;;;10151774;28;20143;-51
2024/01/13 16:16:29;;;;;;;10.73;4.10;;;23.50;38.90;;;;;;10154719;28;20491;-51
2024/01/13 16:21:30;;;;;;;11.15;4.28;;;23.50;39.40;;;;;;10151695;28;20411;-53
2024/01/13 16:26:32;;;;;;;7.75;4.30;;;23.50;40.00;;;;;;10153716;28;20441;-49
2024/01/13 16:31:35;;;;;;;11.02;4.00;;;23.60;40.10;;;;;;10151907;28;20131;-53
2024/01/13 16:36:37;;;;;;;8.65;3.20;;;23.50;39.50;;;;;;10149017;28;20050;-49
2024/01/13 16:41:39;;;;;;;10.95;2.95;;;23.60;38.30;;;;;;10150363;28;20052;-53
2024/01/13 16:46:43;;;;;;;12.40;3.38;;;23.70;37.60;;;;;;10152689;28;20044;-55
2024/01/13 16:51:44;;;;;;;9.63;3.47;;;23.60;37.30;;;;;;10155883;28;20075;-55
2024/01/13 16:56:46;;;;;;;9.85;3.15;;;23.60;37.00;;;;;;10155454;28;20044;-54
2024/01/13 17:01:50;;;;;;;7.95;2.90;;;23.60;37.20;;;;;;10160844;28;20052;-55
2024/01/13 17:06:52;;;;;;;8.05;3.17;;;23.50;37.10;;;;;;10155887;28;20091;-54
2024/01/13 17:11:54;;;;;;;7.68;2.95;;;23.50;37.30;;;;;;10156820;28;20052;-52
2024/01/13 17:16:59;;;;;;;8.63;3.10;;;23.50;37.20;;;;;;10154570;28;20048;-53
2024/01/13 17:22:04;;;;;;;5.57;2.72;;;23.70;36.50;;;;;;10155054;28;20522;-55
2024/01/13 17:27:05;;;;;;;6.53;2.97;;;23.50;37.20;;;;;;10158935;28;20056;-54
2024/01/13 17:32:08;;;;;;;7.10;2.90;;;23.60;37.20;;;;;;10152161;28;20044;-55
2024/01/13 17:37:10;;;;;;;8.13;2.80;;;23.50;36.70;;;;;;10153381;28;20044;-54
2024/01/13 17:42:14;;;;;;;9.10;2.47;;;23.50;36.70;;;;;;10156470;28;20044;-54
2024/01/13 17:47:17;;;;;;;6.50;2.50;;;23.60;36.10;;;;;;10154647;28;20132;-53
2024/01/13 17:52:19;;;;;;;7.57;2.88;;;23.80;34.80;;;;;;10152827;28;20055;-53
2024/01/13 17:57:21;;;;;;;10.60;3.33;;;23.60;35.20;;;;;;10152178;28;20532;-53
2024/01/13 18:02:24;;;;;;;8.80;3.03;;;23.40;36.50;;;;;;10152064;28;20132;-56
2024/01/13 18:07:25;;;;;;;9.10;3.00;;;23.40;36.30;;;;;;10149786;28;20048;-54
2024/01/13 18:12:27;;;;;;;8.75;2.80;;;23.50;36.70;;;;;;10153976;28;20114;-52
2024/01/13 18:17:30;;;;;;;5.72;2.65;;;23.50;37.10;;;;;;10155911;28;20063;-52
2024/01/13 18:22:32;;;;;;;5.88;2.53;;;23.50;37.50;;;;;;10151150;28;20060;-55
2024/01/13 18:27:33;;;;;;;7.25;2.72;;;23.50;38.40;;;;;;10151978;28;20131;-54
2024/01/13 18:32:37;;;;;;;10.95;3.05;;;23.50;38.70;;;;;;10155435;28;20110;-52
2024/01/13 18:37:38;;;;;;;5.93;2.58;;;23.60;38.70;;;;;;10155503;28;20569;-53
2024/01/13 18:42:40;;;;;;;6.95;2.30;;;23.60;39.00;;;;;;10155147;28;20501;-54
2024/01/13 18:47:43;;;;;;;7.72;2.60;;;23.60;39.10;;;;;;10151910;28;20052;-54
2024/01/13 18:52:45;;;;;;;5.30;2.58;;;23.70;38.80;;;;;;10154197;28;20139;-54
2024/01/13 18:57:48;;;;;;;7.50;2.88;;;23.60;39.40;;;;;;10158657;28;20058;-56
2024/01/13 19:02:51;;;;;;;6.07;2.70;;;23.90;39.40;;;;;;10157360;28;20139;-57
2024/01/13 19:07:53;;;;;;;7.00;2.15;;;23.80;39.50;;;;;;10160720;28;20056;-56
2024/01/13 19:12:55;;;;;;;5.65;2.38;;;23.70;39.40;;;;;;10157578;28;20060;-55
2024/01/13 19:17:58;;;;;;;6.95;2.58;;;23.60;39.40;;;;;;10157262;28;20057;-55
2024/01/13 19:22:59;;;;;;;4.97;2.17;;;23.60;39.40;;;;;;10164923;28;20143;-53
2024/01/13 19:28:01;;;;;;;6.50;2.20;;;23.70;39.10;;;;;;10159565;28;20546;-55
2024/01/13 19:33:04;;;;;;;6.88;2.72;;;23.80;38.80;;;;;;10162652;28;20428;-55
2024/01/13 19:38:07;;;;;;;5.47;2.47;;;24.00;38.70;;;;;;10158509;28;20150;-54
2024/01/13 19:43:09;;;;;;;7.10;2.65;;;24.30;38.20;;;;;;10152558;28;20056;-54
2024/01/13 19:48:12;;;;;;;6.85;2.60;;;24.10;38.60;;;;;;10157557;28;20609;-58
2024/01/13 19:53:13;;;;;;;4.82;2.35;;;23.90;39.00;;;;;;10159560;28;20060;-56
2024/01/13 19:58:15;;;;;;;6.07;2.70;;;23.50;40.10;;;;;;10164372;28;20066;-56
2024/01/13 20:03:18;;;;;;;5.68;2.75;;;23.40;40.30;;;;;;10157223;28;20051;-58
2024/01/13 20:08:21;;;;;;;6.82;2.05;;;23.50;40.70;;;;;;10161446;28;20055;-56
2024/01/13 20:13:22;;;;;;;5.60;2.40;;;23.50;40.70;;;;;;10153103;28;20084;-54
2024/01/13 20:18:25;;;;;;;6.25;2.13;;;23.50;41.30;;;;;;10158314;28;20068;-58
2024/01/13 20:23:27;;;;;;;8.70;2.55;;;23.50;43.50;;;;;;10156671;28;20059;-57
2024/01/13 20:28:29;;;;;;;4.80;2.28;;;23.40;44.70;;;;;;10152953;28;20054;-54
2024/01/13 20:33:32;;;;;;;8.00;2.38;;;23.40;45.70;;;;;;10144855;28;20487;-53
2024/01/13 20:38:33;;;;;;;6.57;2.33;;;23.40;45.30;;;;;;10152908;28;20425;-57
2024/01/13 20:43:35;;;;;;;7.85;2.28;;;23.20;45.40;;;;;;10147946;28;20144;-55
2024/01/13 20:48:38;;;;;;;6.65;2.38;;;23.10;45.90;;;;;;10148234;28;20413;-55
2024/01/13 20:53:40;;;;;;;5.65;2.40;;;23.00;46.50;;;;;;10148563;28;20040;-56
2024/01/13 20:58:42;;;;;;;5.43;2.38;;;22.90;46.50;;;;;;10152158;28;20076;-54
2024/01/13 21:03:45;;;;;;;7.07;1.98;;;23.00;46.10;;;;;;10152997;28;20068;-55
2024/01/13 21:08:46;;;;;;;3.55;1.92;;;23.00;45.80;;;;;;10151441;28;20425;-52
2024/01/13 21:13:48;;;;;;;4.28;2.08;;;23.00;45.70;;;;;;10151407;29;20046;-53
2024/01/13 21:18:51;;;;;;;6.93;1.90;;;22.90;45.70;;;;;;10145291;28;20055;-49
2024/01/13 21:23:52;;;;;;;4.90;2.03;;;22.30;44.20;;;;;;10147582;28;20044;-56
2024/01/13 21:28:54;;;;;;;7.15;1.77;;;22.30;44.90;;;;;;10143026;28;20135;-57
2024/01/13 21:33:59;;;;;;;5.30;1.70;;;22.30;45.10;;;;;;10155681;28;20056;-55
2024/01/13 21:39:01;;;;;;;4.53;2.10;;;22.20;45.60;;;;;;10158506;28;20557;-57
2024/01/13 21:44:04;;;;;;;4.13;2.00;;;22.10;45.70;;;;;;10157369;28;20245;-54
2024/01/13 21:49:08;;;;;;;5.20;1.73;;;22.00;45.80;;;;;;10163509;28;20060;-57
2024/01/13 21:54:09;;;;;;;4.60;1.70;;;22.10;45.30;;;;;;10155999;28;20048;-56
2024/01/13 21:59:11;;;;;;;3.92;1.40;;;21.90;45.20;;;;;;10151515;28;20052;-54
2024/01/13 22:04:17;;;;;;;2.35;1.45;;;21.90;45.00;;;;;;10155517;28;20052;-56
2024/01/13 22:09:18;;;;;;;4.10;1.52;;;21.80;45.00;;;;;;10157638;28;20532;-54
2024/01/13 22:14:21;;;;;;;2.80;1.40;;;21.70;44.80;;;;;;10153121;28;20048;-54
2024/01/13 22:19:23;;;;;;;3.40;1.65;;;21.70;44.70;;;;;;10156307;28;20414;-56
2024/01/13 22:24:25;;;;;;;3.83;1.60;;;21.60;44.50;;;;;;10149029;28;20139;-55
2024/01/13 22:29:27;;;;;;;4.82;1.63;;;21.60;44.40;;;;;;10153113;28;20136;-57
2024/01/13 22:34:30;;;;;;;3.00;1.45;;;21.50;44.30;;;;;;10146336;28;20044;-53
2024/01/13 22:39:31;;;;;;;2.42;1.40;;;21.40;44.40;;;;;;10148900;28;20056;-53
2024/01/13 22:44:33;;;;;;;3.63;1.50;;;21.40;44.40;;;;;;10150990;28;20052;-55
2024/01/13 22:49:36;;;;;;;2.75;1.42;;;21.40;44.10;;;;;;10155707;28;20571;-54
2024/01/13 22:54:44;;;;;;;2.55;1.33;;;21.30;44.00;;;;;;10153491;28;20421;-56
2024/01/13 22:59:45;;;;;;;2.10;1.33;;;21.20;44.00;;;;;;10157579;28;20052;-54
2024/01/13 23:04:48;;;;;;;3.50;1.50;;;21.20;44.20;;;;;;10150653;28;20087;-55
2024/01/13 23:09:50;;;;;;;2.47;1.25;;;21.10;44.00;;;;;;10142728;28;20524;-55
2024/01/13 23:14:52;;;;;;;3.05;1.40;;;21.00;44.10;;;;;;10146304;28;20047;-55
2024/01/13 23:19:55;;;;;;;2.60;1.35;;;20.90;44.20;;;;;;10148144;28;20128;-56
2024/01/13 23:24:58;;;;;;;2.28;1.20;;;20.90;44.20;;;;;;10152858;28;20057;-55
2024/01/13 23:30:04;;;;;;;3.30;1.35;;;20.80;44.10;;;;;;10150406;28;20059;-52
2024/01/13 23:35:07;;;;;;;2.83;1.50;;;20.70;44.20;;;;;;10159387;28;20075;-56
2024/01/13 23:40:10;;;;;;;2.92;1.30;;;20.70;44.00;;;;;;10147631;28;20877;-57
2024/01/13 23:45:12;;;;;;;3.03;1.40;;;20.60;44.20;;;;;;10140422;28;20102;-53
2024/01/13 23:50:15;;;;;;;3.10;1.38;;;20.70;43.80;;;;;;10152160;28;20541;-54
2024/01/13 23:55:17;;;;;;;3.17;1.38;;;20.60;43.90;;;;;;10143531;28;20076;-51
